CYVC

Details ICAO CYVC (YVC)
Name La Ronge (Barber Field)
Region Canada
Timezone America/Regina (UTC-6.0)
Plans Departing 8
Arriving 5
Stats Elevation 1,242 ft / 379 m (AMSL)
Location 55.150526° -105.265110°
Runways 2
Magnetic Variation 9.560° E
Sunrise 2017-12-14 15:21:37 UTC / 2017-12-14 09:21:37 Local
Sunset 2017-12-14 22:32:57 UTC / 2017-12-14 16:32:57 Local
Advertisement - Login to hide

Runways

ID Width Length Bearing (true) Bearing (mag) Surface Threshold Offset Overrun Length
10 49 ft / 15 m 2,362 ft / 720 m 116.00° 106.44° Gravel 0 ft / 0 m 0 ft / 0 m
18 151 ft / 46 m 4,997 ft / 1,523 m 189.05° 179.49° Asphalt 0 ft / 0 m 0 ft / 0 m
28 49 ft / 15 m 2,362 ft / 720 m 296.00° 286.44° Gravel 0 ft / 0 m 0 ft / 0 m
36 151 ft / 46 m 4,997 ft / 1,523 m 9.05° 359.49° Asphalt 0 ft / 0 m 0 ft / 0 m

Map

Weather


0- 5 10 15 20 25 30 35+ Temperature / ° C

Clouds and Precipitation
Forecast for 2017-12-15 06:00 UTC. Updated 2 hours ago

Ground ~20,000 ft ~40,000 ft Winds

METAR

CYVC 150300Z 11004KT 3SM -SN OVC042 M08/M10 A2990 RMK SN4SC4 SLP154

TAF

TAF AMD TAF AMD CYVC 150131Z 1501/1513 VRB03KT 6SM -SN OVC025 TEMPO 1501/1506 2SM -SN VV008 FM150600 10006KT 3SM -SN OVC015 TEMPO 1506/1513 1SM -SN VV007 RMK NXT FCST BY 150700Z

Frequencies

Tower 122.20 MHz MF RDO
Warning: Do not use this data for real-world aviation or navigation. No guarantee of current accuracy is given.